Time;durP1;ratioP1;P1;durP2;ratioP2;P2;SDS_P1;SDS_P2;PMS_P1;PMS_P2;Temp;Humidity;BMP_temperature;BMP_pressure;BME280_temperature;BME280_humidity;BME280_pressure;Samples;Min_cycle;Max_cycle;Signal;HPM_P1;HPM_P2
2023/10/07 00:00:24;;;;;;;1.50;1.00;;;14.40;98.20;;;;;;4968100;28;20462;-79
2023/10/07 00:02:52;;;;;;;1.50;1.00;;;14.40;98.20;;;;;;4984743;28;20542;-79
2023/10/07 00:05:26;;;;;;;1.50;1.03;;;14.40;98.20;;;;;;4972912;28;20477;-80
2023/10/07 00:08:00;;;;;;;1.50;1.00;;;14.40;98.20;;;;;;4981195;28;20865;-80
2023/10/07 00:10:29;;;;;;;1.50;1.10;;;14.40;98.20;;;;;;4971540;28;20481;-79
2023/10/07 00:12:57;;;;;;;1.50;1.00;;;14.40;98.20;;;;;;4985793;28;20485;-79
2023/10/07 00:15:28;;;;;;;1.50;1.00;;;14.40;98.20;;;;;;4986047;28;20473;-79
2023/10/07 00:18:00;;;;;;;1.50;1.00;;;14.40;98.20;;;;;;4977485;28;20484;-80
2023/10/07 00:20:28;;;;;;;1.50;1.10;;;14.50;98.20;;;;;;4971033;28;21016;-79
2023/10/07 00:23:00;;;;;;;1.70;1.53;;;14.50;98.20;;;;;;4980432;28;20579;-79
2023/10/07 00:25:32;;;;;;;1.50;1.00;;;14.50;98.20;;;;;;4972183;28;20475;-80
2023/10/07 00:27:59;;;;;;;1.50;1.10;;;14.50;98.20;;;;;;4976354;28;20555;-80
2023/10/07 00:30:29;;;;;;;1.50;1.10;;;14.50;98.20;;;;;;4969942;28;20996;-81
2023/10/07 00:32:58;;;;;;;1.50;0.90;;;14.50;98.20;;;;;;4976700;28;21066;-79
2023/10/07 00:35:28;;;;;;;1.50;1.00;;;14.50;98.20;;;;;;4968323;28;20470;-79
2023/10/07 00:37:58;;;;;;;1.50;1.10;;;14.50;98.20;;;;;;4975357;28;20512;-79
2023/10/07 00:40:40;;;;;;;1.50;1.10;;;14.50;98.20;;;;;;4967842;28;20493;-79
2023/10/07 00:43:11;;;;;;;1.50;1.10;;;14.50;98.20;;;;;;4976287;28;21012;-79
2023/10/07 00:45:39;;;;;;;1.50;1.07;;;14.50;98.20;;;;;;4967963;28;20473;-79
2023/10/07 00:48:11;;;;;;;1.50;1.10;;;14.50;98.20;;;;;;4976829;28;21087;-79
2023/10/07 00:50:40;;;;;;;1.47;1.00;;;14.50;98.20;;;;;;4965480;28;20802;-79
2023/10/07 00:53:09;;;;;;;1.50;1.00;;;14.50;98.20;;;;;;4977608;28;20572;-79
2023/10/07 00:55:37;;;;;;;1.50;0.97;;;14.40;98.20;;;;;;4968111;28;20999;-79
2023/10/07 00:58:08;;;;;;;1.50;1.00;;;14.40;98.20;;;;;;4972906;28;20905;-79
2023/10/07 01:00:49;;;;;;;1.50;1.00;;;14.40;98.20;;;;;;4967783;28;20465;-79
2023/10/07 01:03:23;;;;;;;1.50;1.00;;;14.40;98.20;;;;;;4949229;28;20483;-79
2023/10/07 01:06:10;;;;;;;1.50;1.00;;;14.40;98.20;;;;;;4955918;28;20545;-79
2023/10/07 01:08:41;;;;;;;1.50;1.00;;;14.40;98.20;;;;;;4962126;28;20553;-79
2023/10/07 01:11:19;;;;;;;1.50;1.00;;;14.40;98.20;;;;;;4942498;28;20486;-79
2023/10/07 01:13:50;;;;;;;1.50;1.00;;;14.40;98.20;;;;;;4958821;28;20486;-79
2023/10/07 01:16:34;;;;;;;1.50;1.10;;;14.40;98.20;;;;;;4940487;28;20517;-79
2023/10/07 01:19:18;;;;;;;1.47;1.00;;;14.40;98.20;;;;;;4948169;28;20499;-79
2023/10/07 01:21:50;;;;;;;1.50;1.00;;;14.40;98.20;;;;;;4946219;28;20478;-79
2023/10/07 01:24:33;;;;;;;1.50;1.00;;;14.30;98.20;;;;;;4960047;28;20487;-77
2023/10/07 01:27:06;;;;;;;1.50;1.00;;;14.30;98.20;;;;;;4968336;28;20485;-77
2023/10/07 01:29:34;;;;;;;1.50;0.93;;;14.30;98.20;;;;;;4982911;28;20470;-77
2023/10/07 01:32:11;;;;;;;1.47;1.00;;;14.30;98.20;;;;;;4962683;28;20486;-78
2023/10/07 01:34:38;;;;;;;1.50;1.00;;;14.30;98.20;;;;;;4952634;28;21020;-78
2023/10/07 01:37:08;;;;;;;1.50;1.10;;;14.30;98.20;;;;;;4950015;28;20477;-78
2023/10/07 01:39:41;;;;;;;1.43;1.00;;;14.30;98.20;;;;;;4957224;28;20467;-78
2023/10/07 01:42:12;;;;;;;1.50;1.00;;;14.30;98.20;;;;;;4970221;28;21426;-78
2023/10/07 01:44:41;;;;;;;1.50;1.00;;;14.30;98.20;;;;;;4974611;28;20489;-78
2023/10/07 01:47:23;;;;;;;1.50;1.00;;;14.40;98.20;;;;;;4967895;28;20492;-77
2023/10/07 01:49:53;;;;;;;1.47;1.00;;;14.40;98.20;;;;;;4978980;28;20744;-78
2023/10/07 01:52:24;;;;;;;1.50;1.10;;;14.40;98.20;;;;;;4969201;28;20615;-78
2023/10/07 01:54:53;;;;;;;1.50;1.00;;;14.40;98.20;;;;;;4977734;28;20469;-78
2023/10/07 01:57:20;;;;;;;1.47;1.00;;;14.40;98.20;;;;;;4969317;28;20496;-78
2023/10/07 01:59:47;;;;;;;1.50;1.00;;;14.40;98.20;;;;;;4972101;28;20556;-78
2023/10/07 02:02:15;;;;;;;1.50;1.00;;;14.40;98.20;;;;;;4974134;28;20488;-78
2023/10/07 02:04:43;;;;;;;1.47;1.00;;;14.40;98.20;;;;;;4978714;28;20489;-79
2023/10/07 02:07:10;;;;;;;1.50;1.00;;;14.40;98.20;;;;;;4970514;28;20492;-78
2023/10/07 02:09:40;;;;;;;1.50;1.10;;;14.40;98.20;;;;;;4981253;28;20470;-78
2023/10/07 02:12:09;;;;;;;1.43;1.00;;;14.40;98.20;;;;;;4967577;28;20508;-78
2023/10/07 02:14:38;;;;;;;1.50;1.00;;;14.50;98.20;;;;;;4977625;28;20490;-79
2023/10/07 02:17:09;;;;;;;1.50;1.00;;;14.50;98.20;;;;;;4971039;28;20556;-79
2023/10/07 02:19:39;;;;;;;1.50;1.00;;;14.50;98.20;;;;;;4978195;28;20450;-78
2023/10/07 02:22:13;;;;;;;1.50;1.10;;;14.50;98.20;;;;;;4971729;28;20544;-79
2023/10/07 02:24:41;;;;;;;1.50;1.10;;;14.40;98.20;;;;;;4974253;28;20555;-79
2023/10/07 02:27:17;;;;;;;1.50;1.00;;;14.50;98.20;;;;;;4973336;28;20512;-80
2023/10/07 02:29:44;;;;;;;1.47;1.00;;;14.50;98.20;;;;;;4978977;28;20466;-78
2023/10/07 02:32:14;;;;;;;1.50;1.00;;;14.50;98.20;;;;;;4975078;28;21361;-79
2023/10/07 02:34:52;;;;;;;1.50;1.10;;;14.50;98.20;;;;;;4975531;28;20488;-79
2023/10/07 02:37:21;;;;;;;1.50;1.10;;;14.50;98.20;;;;;;4980120;28;20544;-80
2023/10/07 02:39:54;;;;;;;1.50;1.00;;;14.50;98.20;;;;;;4978054;28;21174;-79
2023/10/07 02:42:24;;;;;;;1.50;1.00;;;14.50;98.20;;;;;;4981712;28;20477;-78
2023/10/07 02:45:00;;;;;;;1.50;1.00;;;14.50;98.20;;;;;;4981368;28;20478;-79
2023/10/07 02:47:31;;;;;;;1.50;1.00;;;14.50;98.20;;;;;;4979944;28;20476;-80
2023/10/07 02:50:00;;;;;;;1.50;1.07;;;14.50;98.20;;;;;;4982015;28;20484;-78
2023/10/07 02:52:34;;;;;;;1.50;1.10;;;14.50;98.20;;;;;;4980237;28;20507;-80
2023/10/07 02:55:27;;;;;;;1.50;1.00;;;14.60;98.20;;;;;;4982920;28;20549;-79
2023/10/07 02:57:56;;;;;;;1.50;1.10;;;14.60;98.20;;;;;;4986780;28;20481;-82
2023/10/07 03:00:35;;;;;;;1.50;1.07;;;14.60;98.20;;;;;;4984048;28;20462;-82
2023/10/07 03:03:19;;;;;;;1.50;1.00;;;14.60;98.20;;;;;;4985997;28;21145;-82
2023/10/07 03:05:57;;;;;;;1.50;1.10;;;14.60;98.20;;;;;;4976982;28;20461;-81
2023/10/07 03:08:31;;;;;;;1.50;1.00;;;14.60;98.20;;;;;;4968420;28;21296;-81
2023/10/07 03:11:09;;;;;;;1.47;1.00;;;14.60;98.20;;;;;;4972312;28;20572;-83
2023/10/07 03:13:38;;;;;;;1.50;1.00;;;14.60;98.20;;;;;;4989416;28;20572;-84
2023/10/07 03:19:06;;;;;;;1.47;1.00;;;14.60;98.20;;;;;;4985654;28;20466;-80
2023/10/07 03:21:54;;;;;;;1.47;0.90;;;14.60;98.20;;;;;;4971719;28;20481;-79
2023/10/07 03:24:39;;;;;;;1.50;1.10;;;14.60;98.20;;;;;;4981607;28;20493;-80
2023/10/07 03:27:10;;;;;;;1.50;1.07;;;14.60;98.20;;;;;;4979604;28;20480;-80
2023/10/07 03:29:57;;;;;;;1.50;1.00;;;14.60;98.20;;;;;;4988648;28;20471;-79
2023/10/07 03:32:24;;;;;;;1.47;1.00;;;14.70;98.20;;;;;;4983329;28;20576;-82
2023/10/07 03:34:51;;;;;;;1.50;1.00;;;14.70;98.20;;;;;;4977716;28;20462;-81
2023/10/07 03:37:18;;;;;;;1.47;0.93;;;14.70;98.20;;;;;;4975283;28;20482;-81
2023/10/07 03:42:33;;;;;;;1.50;1.10;;;14.70;98.20;;;;;;4969971;28;20556;-81
2023/10/07 03:45:02;;;;;;;1.50;1.00;;;14.70;98.20;;;;;;4975642;28;20470;-79
2023/10/07 03:47:32;;;;;;;1.50;1.00;;;14.70;98.20;;;;;;4971457;28;20482;-81
2023/10/07 03:49:59;;;;;;;1.50;1.00;;;14.70;98.20;;;;;;4972785;28;20466;-82
2023/10/07 03:52:28;;;;;;;1.50;1.00;;;14.80;98.20;;;;;;4978836;28;20492;-82
2023/10/07 03:54:59;;;;;;;1.50;0.90;;;14.80;98.20;;;;;;4968829;28;20470;-80
2023/10/07 03:57:26;;;;;;;1.50;1.00;;;14.80;98.20;;;;;;4977991;28;21063;-79
2023/10/07 03:59:55;;;;;;;1.50;1.00;;;14.80;98.20;;;;;;4978344;28;20887;-81
2023/10/07 04:02:36;;;;;;;1.50;1.00;;;14.80;98.20;;;;;;4975498;28;20520;-79
2023/10/07 04:05:12;;;;;;;1.50;1.00;;;14.90;98.20;;;;;;4969961;28;20545;-81
2023/10/07 04:07:39;;;;;;;1.50;1.00;;;14.90;98.20;;;;;;4968662;28;20512;-80
2023/10/07 04:10:31;;;;;;;1.50;1.00;;;14.90;98.20;;;;;;4973149;28;20466;-80
2023/10/07 04:12:58;;;;;;;1.50;1.00;;;14.90;98.20;;;;;;4984031;28;20497;-80
2023/10/07 04:15:29;;;;;;;1.50;1.00;;;15.00;98.20;;;;;;4973725;28;20458;-79
2023/10/07 04:17:59;;;;;;;1.47;1.00;;;15.00;98.20;;;;;;4973002;28;20473;-80
2023/10/07 04:20:42;;;;;;;1.50;1.00;;;15.00;98.20;;;;;;4972658;28;20840;-79
2023/10/07 04:23:09;;;;;;;1.50;1.00;;;15.00;98.20;;;;;;4983203;28;20870;-81
2023/10/07 04:25:43;;;;;;;1.50;1.10;;;15.00;98.20;;;;;;4970367;28;21024;-81
2023/10/07 04:28:13;;;;;;;1.50;1.07;;;15.00;98.20;;;;;;4971144;28;20490;-81
2023/10/07 04:30:46;;;;;;;1.50;1.00;;;15.10;98.20;;;;;;4973528;28;20469;-81
2023/10/07 04:33:18;;;;;;;1.50;0.90;;;15.10;98.20;;;;;;4942935;28;20920;-82
2023/10/07 04:35:49;;;;;;;1.50;1.00;;;15.10;98.20;;;;;;4948516;28;20521;-82
2023/10/07 04:38:39;;;;;;;1.50;1.00;;;15.10;98.20;;;;;;4959306;28;20671;-81
2023/10/07 04:43:59;;;;;;;1.50;1.00;;;15.10;98.20;;;;;;4983303;28;20520;-80
2023/10/07 04:46:28;;;;;;;1.47;0.97;;;15.20;98.20;;;;;;4962889;28;20468;-78
2023/10/07 04:48:59;;;;;;;1.47;1.00;;;15.20;98.20;;;;;;4979203;28;20993;-78
2023/10/07 04:51:46;;;;;;;1.50;0.90;;;15.20;98.20;;;;;;4957470;28;20478;-79
2023/10/07 04:54:20;;;;;;;1.50;1.00;;;15.20;98.20;;;;;;4957931;28;20506;-81
2023/10/07 04:56:53;;;;;;;1.50;1.10;;;15.20;98.20;;;;;;4951390;28;20477;-81
2023/10/07 04:59:21;;;;;;;1.50;1.00;;;15.20;98.20;;;;;;4950445;28;20554;-80
2023/10/07 05:01:56;;;;;;;1.50;1.00;;;15.30;98.20;;;;;;4950227;28;20494;-80
2023/10/07 05:04:24;;;;;;;1.50;1.00;;;15.30;98.20;;;;;;4954815;28;20577;-78
2023/10/07 05:06:53;;;;;;;1.50;1.00;;;15.30;98.20;;;;;;4951200;28;20561;-78
2023/10/07 05:09:21;;;;;;;1.50;1.00;;;15.30;98.20;;;;;;4953854;28;20463;-79
2023/10/07 05:11:49;;;;;;;1.50;1.00;;;15.30;98.20;;;;;;4952832;28;20703;-80
2023/10/07 05:14:17;;;;;;;1.50;1.00;;;15.30;98.20;;;;;;4955754;28;20574;-79
2023/10/07 05:16:47;;;;;;;1.50;0.97;;;15.30;98.20;;;;;;4947508;28;20544;-78
2023/10/07 05:19:19;;;;;;;1.50;1.00;;;15.30;98.20;;;;;;4956230;28;20476;-80
2023/10/07 05:21:58;;;;;;;1.50;1.00;;;15.30;98.20;;;;;;4949007;28;20544;-79
2023/10/07 05:24:28;;;;;;;1.50;1.00;;;15.30;98.20;;;;;;4955355;28;20514;-79
2023/10/07 05:26:55;;;;;;;1.50;0.90;;;15.30;98.20;;;;;;4950027;28;20494;-80
2023/10/07 05:29:24;;;;;;;1.50;1.00;;;15.30;98.20;;;;;;4958975;28;20604;-80
2023/10/07 05:31:51;;;;;;;1.50;1.00;;;15.30;98.20;;;;;;4950566;28;20798;-80
2023/10/07 05:34:18;;;;;;;1.50;0.97;;;15.30;98.20;;;;;;4961046;28;21062;-80
2023/10/07 05:36:45;;;;;;;1.50;1.00;;;15.30;98.20;;;;;;4950215;28;20950;-81
2023/10/07 05:39:15;;;;;;;1.97;1.77;;;15.30;98.20;;;;;;4957950;28;21013;-79
2023/10/07 05:41:44;;;;;;;1.50;1.00;;;15.40;98.20;;;;;;4947513;28;20933;-79
2023/10/07 05:44:11;;;;;;;1.50;1.10;;;15.40;98.20;;;;;;4958674;28;20557;-81
2023/10/07 05:46:38;;;;;;;1.50;1.00;;;15.40;98.20;;;;;;4947914;28;20480;-78
2023/10/07 05:49:06;;;;;;;1.50;1.00;;;15.40;98.20;;;;;;4960324;28;20494;-80
2023/10/07 05:51:34;;;;;;;1.50;1.00;;;15.40;98.20;;;;;;4947736;28;20847;-80
2023/10/07 05:54:01;;;;;;;1.50;1.10;;;15.40;98.20;;;;;;4956669;28;20487;-80
2023/10/07 05:56:30;;;;;;;1.53;1.13;;;15.40;98.20;;;;;;4946254;28;20478;-79
2023/10/07 05:58:57;;;;;;;1.50;1.00;;;15.40;98.20;;;;;;4960181;28;20501;-81
2023/10/07 06:01:24;;;;;;;1.50;1.00;;;15.50;98.20;;;;;;4944665;28;20481;-80
2023/10/07 06:03:52;;;;;;;1.50;0.97;;;15.50;98.20;;;;;;4961131;28;20531;-81
2023/10/07 06:06:21;;;;;;;1.50;1.10;;;15.50;98.20;;;;;;4942979;28;21004;-78
2023/10/07 06:08:48;;;;;;;1.50;1.00;;;15.50;98.20;;;;;;4961323;28;20502;-78
2023/10/07 06:11:16;;;;;;;1.50;0.90;;;15.50;98.20;;;;;;4947749;28;20517;-80
2023/10/07 06:13:44;;;;;;;1.50;1.00;;;15.50;98.20;;;;;;4964695;28;21009;-78
2023/10/07 06:16:13;;;;;;;1.50;1.00;;;15.60;98.20;;;;;;4947413;28;20543;-78
2023/10/07 06:18:41;;;;;;;1.50;1.00;;;15.60;98.20;;;;;;4963651;28;20850;-78
2023/10/07 06:21:27;;;;;;;1.50;1.00;;;15.60;98.20;;;;;;4947187;28;20482;-79
2023/10/07 06:23:58;;;;;;;1.50;1.00;;;15.60;98.20;;;;;;4960835;28;20565;-79
2023/10/07 06:26:25;;;;;;;1.50;1.00;;;15.70;98.20;;;;;;4948822;28;20562;-78
2023/10/07 06:28:56;;;;;;;1.50;1.10;;;15.70;98.20;;;;;;4955251;28;20855;-79
2023/10/07 06:31:31;;;;;;;1.50;1.10;;;15.70;98.20;;;;;;4945918;28;20478;-79
2023/10/07 06:34:11;;;;;;;1.50;0.90;;;15.70;98.20;;;;;;4961416;28;20662;-79
2023/10/07 06:36:40;;;;;;;1.50;1.00;;;15.80;98.20;;;;;;4949350;28;20488;-78
2023/10/07 06:39:08;;;;;;;1.50;1.00;;;15.80;98.20;;;;;;4960900;28;20467;-78
2023/10/07 06:41:43;;;;;;;1.50;0.97;;;15.80;98.20;;;;;;4949725;28;20804;-78
2023/10/07 06:44:15;;;;;;;1.50;1.00;;;15.90;98.20;;;;;;4965426;28;20497;-78
2023/10/07 06:46:44;;;;;;;1.47;0.93;;;15.90;98.20;;;;;;4948359;28;20489;-79
2023/10/07 06:49:17;;;;;;;1.50;1.00;;;15.90;98.20;;;;;;4955372;28;20463;-78
2023/10/07 06:51:45;;;;;;;1.50;0.97;;;15.90;98.20;;;;;;4949173;28;20490;-78
2023/10/07 06:54:13;;;;;;;1.50;0.90;;;16.00;98.20;;;;;;4960195;28;20486;-81
2023/10/07 06:56:40;;;;;;;1.50;0.90;;;16.00;98.20;;;;;;4951492;28;20513;-81
2023/10/07 06:59:08;;;;;;;1.50;1.00;;;16.00;98.20;;;;;;4961305;28;20911;-79
2023/10/07 07:01:51;;;;;;;1.50;0.90;;;16.10;98.20;;;;;;4953076;28;20481;-79
2023/10/07 07:04:21;;;;;;;1.50;1.00;;;16.10;98.20;;;;;;4961299;28;20494;-79
2023/10/07 07:06:58;;;;;;;1.50;0.90;;;16.20;98.20;;;;;;4957635;28;20962;-80
2023/10/07 07:12:14;;;;;;;1.50;0.90;;;16.30;98.20;;;;;;4955194;28;20584;-81
2023/10/07 07:14:50;;;;;;;1.47;1.00;;;16.30;98.20;;;;;;4956329;28;20490;-80
2023/10/07 07:17:35;;;;;;;1.50;1.00;;;16.40;98.20;;;;;;4954698;28;20510;-79
2023/10/07 07:20:29;;;;;;;1.50;1.00;;;16.50;98.20;;;;;;4949834;28;20469;-79
2023/10/07 07:22:58;;;;;;;1.50;1.00;;;16.60;98.20;;;;;;4955614;28;20494;-80
2023/10/07 07:25:36;;;;;;;1.60;1.30;;;16.70;98.20;;;;;;4950668;28;20603;-79
2023/10/07 07:28:05;;;;;;;1.50;0.90;;;16.90;98.20;;;;;;4956674;28;20580;-80
2023/10/07 07:30:31;;;;;;;1.50;1.00;;;16.90;98.20;;;;;;4949246;28;20481;-79
2023/10/07 07:33:06;;;;;;;1.50;1.00;;;17.10;98.20;;;;;;4980004;28;20485;-77
2023/10/07 07:35:40;;;;;;;1.50;0.90;;;17.20;98.20;;;;;;4971005;28;20466;-80
2023/10/07 07:38:29;;;;;;;1.50;0.90;;;17.20;98.20;;;;;;4957736;28;20492;-79
2023/10/07 07:41:05;;;;;;;1.50;0.90;;;17.30;98.20;;;;;;4943872;28;20962;-79
2023/10/07 07:43:33;;;;;;;1.50;0.90;;;17.30;98.20;;;;;;4966275;28;20482;-79
2023/10/07 07:46:26;;;;;;;1.50;0.97;;;17.30;98.20;;;;;;4943333;28;20959;-79
2023/10/07 07:48:54;;;;;;;1.50;1.00;;;17.40;98.20;;;;;;4960743;28;20891;-78
2023/10/07 07:51:24;;;;;;;1.50;1.00;;;17.40;98.20;;;;;;4944339;28;20928;-78
2023/10/07 07:53:51;;;;;;;1.50;1.00;;;17.40;98.20;;;;;;4961113;28;20494;-80
2023/10/07 07:56:20;;;;;;;1.50;0.90;;;17.40;98.20;;;;;;4944990;28;20569;-80
2023/10/07 07:58:48;;;;;;;1.50;0.90;;;17.50;98.20;;;;;;4959921;28;20478;-80
2023/10/07 08:01:18;;;;;;;1.50;0.90;;;17.50;98.20;;;;;;4945535;28;20514;-78
2023/10/07 08:03:45;;;;;;;1.50;0.90;;;17.50;98.20;;;;;;4961928;28;20557;-81
2023/10/07 08:06:19;;;;;;;1.50;0.90;;;17.50;98.20;;;;;;4944744;28;20577;-78
2023/10/07 08:08:46;;;;;;;1.50;0.90;;;17.60;98.20;;;;;;4960677;28;20945;-79
2023/10/07 08:11:17;;;;;;;1.47;0.90;;;17.60;98.20;;;;;;4945990;28;20502;-79
2023/10/07 08:13:44;;;;;;;1.50;0.90;;;17.60;98.20;;;;;;4961844;28;20514;-79
2023/10/07 08:16:15;;;;;;;1.50;1.00;;;17.60;98.20;;;;;;4947409;28;20480;-79
2023/10/07 08:18:44;;;;;;;1.50;1.00;;;17.60;98.20;;;;;;4984434;28;20517;-80
2023/10/07 08:21:14;;;;;;;1.80;1.60;;;17.60;98.20;;;;;;4960248;28;20492;-80
2023/10/07 08:23:44;;;;;;;1.50;1.00;;;17.60;98.20;;;;;;4962572;28;20489;-78
2023/10/07 08:26:12;;;;;;;1.50;1.00;;;17.60;98.20;;;;;;4940431;28;20485;-78
2023/10/07 08:28:46;;;;;;;1.50;1.00;;;17.70;98.20;;;;;;4961506;28;20600;-79
2023/10/07 08:31:17;;;;;;;1.43;0.90;;;17.70;98.20;;;;;;4945925;28;20473;-79
2023/10/07 08:33:47;;;;;;;1.50;1.00;;;17.70;98.20;;;;;;4959891;28;20494;-80
2023/10/07 08:36:17;;;;;;;1.50;0.97;;;17.90;98.20;;;;;;4944127;28;21167;-81
2023/10/07 08:38:45;;;;;;;1.60;1.30;;;18.00;98.20;;;;;;4962514;28;20582;-78
2023/10/07 08:41:17;;;;;;;1.50;0.97;;;18.20;98.20;;;;;;4940681;28;20930;-78
2023/10/07 08:43:46;;;;;;;1.50;1.00;;;18.30;98.20;;;;;;4959006;28;20491;-78
2023/10/07 08:46:19;;;;;;;1.50;0.90;;;18.40;98.20;;;;;;4942152;28;20969;-78
2023/10/07 08:48:58;;;;;;;1.50;1.00;;;18.50;98.20;;;;;;4977605;28;20462;-78
2023/10/07 08:51:33;;;;;;;1.50;0.90;;;18.50;98.20;;;;;;4965326;28;20477;-78
2023/10/07 08:54:10;;;;;;;1.50;1.10;;;18.60;98.20;;;;;;4981702;28;20931;-78
2023/10/07 08:56:40;;;;;;;1.50;1.03;;;18.60;98.20;;;;;;4961920;28;20505;-80
2023/10/07 08:59:08;;;;;;;1.50;0.90;;;18.70;98.20;;;;;;4958030;28;20572;-81
2023/10/07 09:01:35;;;;;;;1.50;0.90;;;18.70;98.20;;;;;;4941240;28;21169;-79
2023/10/07 09:04:07;;;;;;;1.50;1.00;;;18.80;98.20;;;;;;4958848;28;20485;-79
2023/10/07 09:06:38;;;;;;;1.50;0.90;;;18.90;98.20;;;;;;4947043;28;20589;-80
2023/10/07 09:09:06;;;;;;;1.50;0.90;;;18.90;98.20;;;;;;4954259;28;20546;-77
2023/10/07 09:11:37;;;;;;;1.50;0.90;;;18.90;98.20;;;;;;4945311;28;20541;-79
2023/10/07 09:14:10;;;;;;;1.50;0.90;;;18.90;98.20;;;;;;4955662;28;20500;-77
2023/10/07 09:16:38;;;;;;;1.50;0.90;;;18.90;98.20;;;;;;4943932;28;20496;-77
2023/10/07 09:19:10;;;;;;;1.50;0.90;;;19.10;98.20;;;;;;4956095;28;20981;-77
2023/10/07 09:21:40;;;;;;;1.50;0.90;;;19.30;98.20;;;;;;4944294;28;20482;-78
2023/10/07 09:24:20;;;;;;;1.50;0.90;;;19.50;98.20;;;;;;4953901;28;20825;-78
2023/10/07 09:26:56;;;;;;;1.50;0.90;;;19.70;98.20;;;;;;4950546;28;20572;-78
2023/10/07 09:29:26;;;;;;;1.50;1.00;;;19.90;98.20;;;;;;4973264;28;20850;-78
2023/10/07 09:31:57;;;;;;;1.50;0.90;;;20.10;98.20;;;;;;4956494;28;20492;-78
2023/10/07 09:34:41;;;;;;;1.50;0.93;;;20.20;98.20;;;;;;4953988;28;21072;-78
2023/10/07 09:37:12;;;;;;;1.50;0.90;;;20.50;98.20;;;;;;4946287;28;20597;-78
2023/10/07 09:39:46;;;;;;;1.50;0.90;;;20.60;98.20;;;;;;4948625;28;20880;-77
2023/10/07 09:42:26;;;;;;;1.50;0.90;;;20.60;98.20;;;;;;4962535;28;20478;-81
2023/10/07 09:45:09;;;;;;;1.50;0.90;;;20.70;98.20;;;;;;4969313;28;20481;-79
2023/10/07 09:47:38;;;;;;;1.50;0.90;;;20.80;98.20;;;;;;4971474;28;20516;-78
2023/10/07 09:50:11;;;;;;;1.50;0.90;;;21.00;98.20;;;;;;4967065;28;20544;-77
2023/10/07 09:52:43;;;;;;;1.50;0.90;;;21.10;98.20;;;;;;4992887;23;20492;-77
2023/10/07 09:55:26;;;;;;;1.47;0.90;;;21.30;98.20;;;;;;4954904;28;20582;-80
2023/10/07 09:58:12;;;;;;;1.50;0.90;;;21.40;98.20;;;;;;4972353;28;20581;-80
2023/10/07 10:01:03;;;;;;;1.50;0.90;;;21.50;98.20;;;;;;4950452;28;20561;-82
2023/10/07 10:03:47;;;;;;;1.50;0.90;;;21.50;98.20;;;;;;4945369;28;20478;-80
2023/10/07 10:06:26;;;;;;;1.50;0.90;;;21.70;98.20;;;;;;4963733;28;20468;-81
2023/10/07 10:08:58;;;;;;;1.50;0.90;;;21.80;98.20;;;;;;4979354;28;21003;-80
2023/10/07 10:11:43;;;;;;;1.67;1.57;;;21.90;98.20;;;;;;4961217;28;21016;-79
2023/10/07 10:14:18;;;;;;;1.50;0.90;;;22.10;98.20;;;;;;4974532;28;20489;-79
2023/10/07 10:16:50;;;;;;;1.47;0.90;;;22.30;98.20;;;;;;4955043;28;20575;-78
2023/10/07 10:19:28;;;;;;;1.50;0.90;;;22.40;98.20;;;;;;4968806;28;20484;-78
2023/10/07 10:22:07;;;;;;;1.50;0.90;;;22.50;98.20;;;;;;4966609;28;20491;-78
2023/10/07 10:24:40;;;;;;;1.50;0.90;;;22.60;98.20;;;;;;4973175;28;20478;-79
2023/10/07 10:27:10;;;;;;;1.50;0.90;;;22.60;98.20;;;;;;4971069;28;21096;-80
2023/10/07 10:29:52;;;;;;;1.50;0.87;;;22.70;98.20;;;;;;4973413;28;20466;-78
2023/10/07 10:32:28;;;;;;;1.47;0.90;;;22.70;98.20;;;;;;4958906;28;20477;-78
2023/10/07 10:34:59;;;;;;;1.47;0.80;;;22.70;98.20;;;;;;4971564;28;20485;-82
2023/10/07 10:37:28;;;;;;;1.43;0.90;;;22.80;98.20;;;;;;4981779;28;20532;-84
2023/10/07 10:42:42;;;;;;;1.50;0.90;;;22.90;98.20;;;;;;4960485;28;20477;-81
2023/10/07 10:45:17;;;;;;;1.50;0.90;;;23.00;98.20;;;;;;4966052;28;20497;-81
2023/10/07 10:47:50;;;;;;;1.47;0.80;;;23.10;98.20;;;;;;4971178;28;20551;-81
2023/10/07 10:50:19;;;;;;;1.47;0.90;;;23.20;98.20;;;;;;4966855;28;20470;-81
2023/10/07 10:52:48;;;;;;;1.50;0.90;;;23.40;97.80;;;;;;4970354;28;20477;-78
2023/10/07 10:55:17;;;;;;;1.50;0.90;;;23.40;97.40;;;;;;4966557;28;20920;-81
2023/10/07 10:57:44;;;;;;;1.47;0.90;;;23.50;97.50;;;;;;4971366;28;20992;-81
2023/10/07 11:00:19;;;;;;;1.50;0.90;;;23.60;97.20;;;;;;4969264;28;20528;-80
2023/10/07 11:02:47;;;;;;;1.50;0.90;;;23.60;96.60;;;;;;4956194;28;20482;-82
2023/10/07 11:05:14;;;;;;;1.50;0.90;;;23.70;97.00;;;;;;4961980;28;20695;-80
2023/10/07 11:07:42;;;;;;;1.50;0.90;;;23.70;97.00;;;;;;4969950;28;20485;-78
2023/10/07 11:10:11;;;;;;;1.47;0.90;;;23.80;96.50;;;;;;4963490;28;20480;-79
2023/10/07 11:12:45;;;;;;;1.50;0.90;;;23.80;96.70;;;;;;4972515;28;20484;-80
2023/10/07 11:15:15;;;;;;;1.50;0.90;;;23.80;96.30;;;;;;4948544;28;20527;-80
2023/10/07 11:17:52;;;;;;;1.47;0.83;;;23.90;96.70;;;;;;4968105;28;20591;-81
2023/10/07 11:20:20;;;;;;;1.50;0.90;;;23.90;96.20;;;;;;4953233;28;20537;-82
2023/10/07 11:22:49;;;;;;;1.47;0.80;;;24.00;95.80;;;;;;4956676;28;20905;-78
2023/10/07 11:25:27;;;;;;;4.90;3.40;;;24.10;95.70;;;;;;4952947;28;20470;-79
2023/10/07 11:27:59;;;;;;;1.47;0.90;;;24.10;95.00;;;;;;4966199;28;20570;-81
2023/10/07 11:30:26;;;;;;;1.47;0.90;;;24.10;94.60;;;;;;4964514;28;20463;-78
2023/10/07 11:32:54;;;;;;;1.50;0.90;;;24.10;94.90;;;;;;4967838;28;20493;-77
2023/10/07 11:35:27;;;;;;;1.50;0.90;;;24.20;94.60;;;;;;4949410;28;20462;-79
2023/10/07 11:37:58;;;;;;;1.47;0.90;;;24.20;94.20;;;;;;4970972;28;20927;-80
2023/10/07 11:40:25;;;;;;;1.43;0.90;;;24.20;94.10;;;;;;4948678;28;20477;-81
2023/10/07 11:42:53;;;;;;;1.50;1.00;;;24.20;94.40;;;;;;4967818;28;20535;-80
2023/10/07 11:45:28;;;;;;;1.47;0.90;;;24.30;93.80;;;;;;4949113;28;20495;-78
2023/10/07 11:47:57;;;;;;;1.47;0.80;;;24.50;93.70;;;;;;4968880;28;20837;-80
2023/10/07 11:50:27;;;;;;;1.50;0.90;;;24.40;91.90;;;;;;4948270;28;20473;-78
2023/10/07 11:52:54;;;;;;;1.50;0.90;;;24.40;92.60;;;;;;4967875;28;20497;-78
2023/10/07 11:55:21;;;;;;;1.50;1.20;;;24.50;92.40;;;;;;4948900;28;21068;-79
2023/10/07 11:57:48;;;;;;;1.43;0.80;;;24.50;91.60;;;;;;4966399;28;20866;-80
2023/10/07 12:00:27;;;;;;;1.43;0.90;;;24.50;93.00;;;;;;4948248;28;20474;-80
2023/10/07 12:02:57;;;;;;;1.47;0.80;;;24.50;93.10;;;;;;4953872;28;20588;-80
2023/10/07 12:05:27;;;;;;;1.40;0.80;;;24.60;93.00;;;;;;4948150;28;20829;-80
2023/10/07 12:07:55;;;;;;;1.50;1.00;;;24.70;93.00;;;;;;4968729;28;21082;-79
2023/10/07 12:10:23;;;;;;;1.47;0.90;;;24.80;92.70;;;;;;4948821;28;20475;-79
2023/10/07 12:12:52;;;;;;;1.47;0.80;;;24.90;90.80;;;;;;4970449;28;20485;-79
2023/10/07 12:15:19;;;;;;;1.47;0.90;;;24.90;91.50;;;;;;4948037;28;20490;-78
2023/10/07 12:17:48;;;;;;;1.43;0.87;;;24.90;91.10;;;;;;4968217;28;20555;-79
2023/10/07 12:20:19;;;;;;;1.47;0.80;;;24.90;91.60;;;;;;4945521;28;20481;-79
2023/10/07 12:22:47;;;;;;;1.50;0.80;;;25.00;92.40;;;;;;4968765;28;20480;-78
2023/10/07 12:25:18;;;;;;;1.47;0.80;;;25.10;91.50;;;;;;4946660;28;20950;-79
2023/10/07 12:27:47;;;;;;;1.43;0.83;;;25.00;91.10;;;;;;4967805;28;20480;-79
2023/10/07 12:30:17;;;;;;;1.93;1.53;;;25.00;91.70;;;;;;4946018;28;20706;-79
2023/10/07 12:32:45;;;;;;;1.47;0.90;;;25.10;92.30;;;;;;4968536;28;20484;-81
2023/10/07 12:35:13;;;;;;;1.43;0.80;;;25.20;92.00;;;;;;4947054;28;21092;-78
2023/10/07 12:37:46;;;;;;;1.47;0.80;;;25.30;91.10;;;;;;4964953;28;20485;-77
2023/10/07 12:40:17;;;;;;;1.50;0.90;;;25.30;91.10;;;;;;4948418;28;20490;-79
2023/10/07 12:42:45;;;;;;;1.47;0.80;;;25.20;91.20;;;;;;4967218;28;20489;-79
2023/10/07 12:45:13;;;;;;;1.47;0.80;;;25.30;91.40;;;;;;4946280;28;20466;-79
2023/10/07 12:47:42;;;;;;;1.47;0.90;;;25.30;91.40;;;;;;4966062;28;20485;-77
2023/10/07 12:50:24;;;;;;;1.47;0.80;;;25.40;91.20;;;;;;4947538;28;20458;-78
2023/10/07 12:52:54;;;;;;;1.47;0.80;;;25.50;91.20;;;;;;4968494;28;20490;-78
2023/10/07 12:55:22;;;;;;;1.50;0.80;;;25.50;90.70;;;;;;4949967;28;20517;-80
2023/10/07 12:57:50;;;;;;;1.50;0.83;;;25.60;91.10;;;;;;4969233;28;20484;-81
2023/10/07 13:00:22;;;;;;;1.47;0.80;;;25.60;90.70;;;;;;4950818;28;20502;-78
2023/10/07 13:02:49;;;;;;;1.43;0.80;;;25.60;90.00;;;;;;4983682;28;21181;-80
2023/10/07 13:05:19;;;;;;;1.50;0.90;;;25.60;89.10;;;;;;4958676;28;20503;-78
2023/10/07 13:07:46;;;;;;;1.47;0.80;;;25.50;89.80;;;;;;4966026;28;20488;-77
2023/10/07 13:10:17;;;;;;;1.47;0.90;;;25.40;88.60;;;;;;4945426;28;20503;-78
2023/10/07 13:12:44;;;;;;;1.47;0.90;;;25.40;89.20;;;;;;4966610;28;20480;-79
2023/10/07 13:15:15;;;;;;;1.47;0.83;;;25.40;89.00;;;;;;4944548;28;20551;-79
2023/10/07 13:17:45;;;;;;;1.47;0.80;;;25.40;89.10;;;;;;4967816;28;20481;-81
2023/10/07 13:20:13;;;;;;;1.43;0.80;;;25.40;89.30;;;;;;4945090;28;20499;-77
2023/10/07 13:22:40;;;;;;;1.50;0.90;;;25.40;88.40;;;;;;4967778;28;20556;-80
2023/10/07 13:25:11;;;;;;;1.43;0.90;;;25.40;88.70;;;;;;4951770;28;20459;-78